createdAt,value
2018-04-13T00:00:23.343Z,99958.44
2018-04-13T00:01:26.838Z,99967.07
2018-04-13T00:02:29.902Z,99968.06
2018-04-13T00:03:33.030Z,99972.16
2018-04-13T00:04:36.081Z,99975.43
2018-04-13T00:05:39.190Z,99974.25
2018-04-13T00:06:42.271Z,99971.66
2018-04-13T00:07:45.422Z,99966.09
2018-04-13T00:08:48.464Z,99970.52
2018-04-13T00:09:51.540Z,99967.58
2018-04-13T00:10:54.635Z,99970.44
2018-04-13T00:11:57.682Z,99975.86
2018-04-13T00:13:00.835Z,99971.63
2018-04-13T00:14:03.866Z,99978.37
2018-04-13T00:15:07.083Z,99973.19
2018-04-13T00:16:10.625Z,99971.94
2018-04-13T00:17:13.644Z,99968.53
2018-04-13T00:18:16.752Z,99970.45
2018-04-13T00:19:19.832Z,99976.81
2018-04-13T00:20:22.886Z,99982.31
2018-04-13T00:21:25.934Z,99975.41
2018-04-13T00:22:28.965Z,99982.16
2018-04-13T00:23:32.043Z,99981.41
2018-04-13T00:24:35.121Z,99977.05
2018-04-13T00:25:38.247Z,99975.83
2018-04-13T00:26:41.282Z,99980.41
2018-04-13T00:27:44.324Z,99978.73
2018-04-13T00:28:47.438Z,99980.17
2018-04-13T00:29:50.900Z,99980.75
2018-04-13T00:30:54.007Z,99976.41
2018-04-13T00:31:57.036Z,99973.00
2018-04-13T00:33:00.112Z,99969.98
2018-04-13T00:34:03.259Z,99969.23
2018-04-13T00:35:06.292Z,99968.50
2018-04-13T00:36:09.332Z,99971.66
2018-04-13T00:37:12.426Z,99979.34
2018-04-13T00:38:15.479Z,99972.42
2018-04-13T00:39:18.632Z,99977.35
2018-04-13T00:40:21.787Z,99974.84
2018-04-13T00:41:24.837Z,99982.50
2018-04-13T00:42:27.867Z,99980.83
2018-04-13T00:43:30.895Z,99984.48
2018-04-13T00:44:34.602Z,99983.34
2018-04-13T00:45:37.834Z,99979.48
2018-04-13T00:46:40.931Z,99984.52
2018-04-13T00:47:44.024Z,99982.42
2018-04-13T00:48:47.055Z,99985.17
2018-04-13T00:49:50.133Z,99985.66
2018-04-13T00:50:53.367Z,99986.77
2018-04-13T00:51:56.696Z,99988.25
2018-04-13T00:53:11.463Z,99991.53
2018-04-13T00:54:14.546Z,99987.10
2018-04-13T00:55:17.635Z,99995.11
2018-04-13T00:56:20.665Z,99997.44
2018-04-13T00:57:23.815Z,99992.20
2018-04-13T00:58:26.930Z,99993.62
2018-04-13T00:59:30.009Z,99995.87
2018-04-13T01:00:33.141Z,99999.53
2018-04-13T01:01:36.195Z,99997.85
2018-04-13T01:02:39.271Z,99998.88
2018-04-13T01:03:42.443Z,100002.53
2018-04-13T01:04:45.535Z,100007.45
2018-04-13T01:05:48.615Z,100003.53
2018-04-13T01:06:51.894Z,100003.22
2018-04-13T01:07:54.999Z,100008.21
2018-04-13T01:08:58.112Z,100003.86
2018-04-13T01:10:01.146Z,100006.53
2018-04-13T01:11:04.312Z,100004.47
2018-04-13T01:12:07.422Z,100005.45
2018-04-13T01:13:10.610Z,100001.95
2018-04-13T01:14:13.737Z,100007.36
2018-04-13T01:15:16.828Z,100004.38
2018-04-13T01:16:19.932Z,100011.05
2018-04-13T01:17:23.081Z,100009.38
2018-04-13T01:18:26.359Z,100012.55
2018-04-13T01:19:29.669Z,100010.86
2018-04-13T01:20:32.726Z,100012.72
2018-04-13T01:21:35.784Z,100011.05
2018-04-13T01:22:38.862Z,100015.55
2018-04-13T01:23:41.908Z,100007.12
2018-04-13T01:24:45.019Z,100014.39
2018-04-13T01:25:48.058Z,100014.47
2018-04-13T01:26:51.149Z,100012.30
2018-04-13T01:27:54.478Z,100020.80
2018-04-13T01:28:57.577Z,100012.02
2018-04-13T01:30:00.714Z,100016.21
2018-04-13T01:31:03.869Z,100017.63
2018-04-13T01:32:07.418Z,100020.37
2018-04-13T01:33:10.467Z,100016.05
2018-04-13T01:34:13.762Z,100017.38
2018-04-13T01:35:16.958Z,100017.95
2018-04-13T01:36:20.020Z,100021.19
2018-04-13T01:37:23.145Z,100022.63
2018-04-13T01:38:26.462Z,100021.80
2018-04-13T01:39:29.553Z,100020.19
2018-04-13T01:40:32.611Z,100016.30
2018-04-13T01:41:35.706Z,100018.12
2018-04-13T01:42:39.035Z,100014.69
2018-04-13T01:43:42.087Z,100015.69
2018-04-13T01:44:45.343Z,100014.45
2018-04-13T01:45:48.528Z,100013.20
2018-04-13T01:46:51.839Z,100016.44
2018-04-13T01:47:55.002Z,100006.78
2018-04-13T01:48:58.049Z,100008.61
2018-04-13T01:50:01.147Z,100013.60
2018-04-13T01:51:04.501Z,99996.83
2018-04-13T01:52:07.579Z,100008.03
2018-04-13T01:53:10.671Z,100005.93
2018-04-13T01:54:13.804Z,100005.16
2018-04-13T01:55:17.232Z,100004.36
2018-04-13T01:56:20.305Z,100005.84
2018-04-13T01:57:23.345Z,100004.58
2018-04-13T01:58:26.680Z,100005.60
2018-04-13T01:59:29.753Z,100002.59
2018-04-13T02:00:32.813Z,100000.41
2018-04-13T02:01:36.192Z,99999.66
2018-04-13T02:02:39.226Z,100003.34
2018-04-13T02:03:42.304Z,100003.41
2018-04-13T02:04:45.365Z,100006.58
2018-04-13T02:05:48.473Z,100006.23
2018-04-13T02:06:51.534Z,100005.08
2018-04-13T02:07:54.648Z,100005.57
2018-04-13T02:08:57.794Z,100008.31
2018-04-13T02:10:00.827Z,100010.25
2018-04-13T02:11:03.995Z,100012.00
2018-04-13T02:12:07.066Z,100009.91
2018-04-13T02:13:10.171Z,100005.14
2018-04-13T02:14:13.679Z,100002.65
2018-04-13T02:15:16.920Z,100008.55
2018-04-13T02:16:20.168Z,100007.30
2018-04-13T02:17:23.258Z,100010.98
2018-04-13T02:18:26.779Z,100011.05
2018-04-13T02:19:29.820Z,100008.95
2018-04-13T02:20:32.922Z,100002.89
2018-04-13T02:21:36.228Z,100006.55
2018-04-13T02:22:39.326Z,100005.78
2018-04-13T02:23:42.369Z,100010.80
2018-04-13T02:24:45.452Z,100006.03
2018-04-13T02:25:48.561Z,100010.10
2018-04-13T02:26:51.610Z,100008.03
2018-04-13T02:27:54.731Z,100010.78
2018-04-13T02:28:57.979Z,100007.77
2018-04-13T02:30:01.074Z,100007.03
2018-04-13T02:31:04.135Z,100011.10
2018-04-13T02:32:07.275Z,100011.17
2018-04-13T02:33:10.439Z,100011.77
2018-04-13T02:34:13.729Z,100006.17
2018-04-13T02:35:16.843Z,100010.24
2018-04-13T02:36:19.899Z,100012.59
2018-04-13T02:37:22.973Z,100012.74
2018-04-13T02:38:26.251Z,100016.32
2018-04-13T02:39:29.293Z,100016.58
2018-04-13T02:40:32.370Z,100016.23
2018-04-13T02:41:35.422Z,100016.72
2018-04-13T02:42:39.024Z,100019.07
2018-04-13T02:43:42.292Z,100013.88
2018-04-13T02:44:45.347Z,100014.38
2018-04-13T02:45:48.767Z,100014.45
2018-04-13T02:46:51.846Z,100016.77
2018-04-13T02:47:54.943Z,100015.58
2018-04-13T02:48:58.014Z,100014.33
2018-04-13T02:50:01.097Z,100022.42
2018-04-13T02:51:04.372Z,100011.42
2018-04-13T02:52:07.457Z,100018.23
2018-04-13T02:53:10.502Z,100016.16
2018-04-13T02:54:13.588Z,100017.14
2018-04-13T02:55:16.702Z,100016.80
2018-04-13T02:57:29.064Z,100019.89
2018-04-13T02:58:32.127Z,100023.05
2018-04-13T02:59:35.186Z,100024.88
2018-04-13T03:00:38.647Z,100026.70
2018-04-13T03:01:41.762Z,100022.35
2018-04-13T03:02:45.079Z,100019.69
2018-04-13T03:03:48.186Z,100022.03
2018-04-13T03:04:51.239Z,100021.69
2018-04-13T03:05:54.415Z,100026.59
2018-04-13T03:06:57.521Z,100032.10
2018-04-13T03:08:00.624Z,100031.69
2018-04-13T03:09:03.696Z,100026.42
2018-04-13T03:10:06.805Z,100025.59
2018-04-13T03:11:09.903Z,100031.06
2018-04-13T03:12:12.994Z,100031.91
2018-04-13T03:13:16.044Z,100034.74
2018-04-13T03:14:19.152Z,100030.89
2018-04-13T03:15:22.290Z,100030.89
2018-04-13T03:16:25.335Z,100030.57
2018-04-13T03:17:28.393Z,100027.14
2018-04-13T03:18:31.456Z,100030.72
2018-04-13T03:19:34.555Z,100031.20
2018-04-13T03:20:37.585Z,100029.14
2018-04-13T03:21:40.718Z,100027.04
2018-04-13T03:22:44.127Z,100030.20
2018-04-13T03:23:47.254Z,100032.09
2018-04-13T03:24:50.295Z,100029.04
2018-04-13T03:25:53.373Z,100030.86
2018-04-13T03:26:56.712Z,100024.34
2018-04-13T03:27:59.868Z,100029.75
2018-04-13T03:29:02.898Z,100031.08
2018-04-13T03:30:06.266Z,100023.27
2018-04-13T03:31:09.411Z,100022.42
2018-04-13T03:32:12.502Z,100026.49
2018-04-13T03:33:15.705Z,100030.06
2018-04-13T03:34:18.783Z,100032.83
2018-04-13T03:35:22.061Z,100030.23
2018-04-13T03:36:25.113Z,100036.13
2018-04-13T03:37:28.158Z,100029.97
2018-04-13T03:38:31.235Z,100031.89
2018-04-13T03:39:34.618Z,100027.05
2018-04-13T03:40:37.663Z,100029.37
2018-04-13T03:41:40.710Z,100028.95
2018-04-13T03:42:43.777Z,100028.63
2018-04-13T03:43:46.842Z,100032.28
2018-04-13T03:44:49.894Z,100037.19
2018-04-13T03:45:53.027Z,100032.42
2018-04-13T03:46:56.126Z,100036.00
2018-04-13T03:47:59.208Z,100040.52
2018-04-13T03:49:02.287Z,100035.75
2018-04-13T03:50:05.473Z,100037.02
2018-04-13T03:51:09.479Z,100037.58
2018-04-13T03:52:12.792Z,100040.31
2018-04-13T03:53:15.964Z,100051.45
2018-04-13T03:54:19.312Z,100042.13
2018-04-13T03:55:22.821Z,100040.98
2018-04-13T03:56:25.879Z,100044.55
2018-04-13T03:57:29.037Z,100046.86
2018-04-13T03:58:32.130Z,100043.39
2018-04-13T03:59:35.218Z,100044.30
2018-04-13T04:00:38.279Z,100041.71
2018-04-13T04:01:41.368Z,100045.28
2018-04-13T04:02:44.434Z,100045.78
2018-04-13T04:03:47.533Z,100046.77
2018-04-13T04:04:50.600Z,100045.01
2018-04-13T04:05:53.831Z,100045.95
2018-04-13T04:06:56.906Z,100047.84
2018-04-13T04:07:59.964Z,100059.90
2018-04-13T04:09:03.055Z,100055.06
2018-04-13T04:10:06.238Z,100059.16
2018-04-13T04:11:09.292Z,100063.64
2018-04-13T04:12:12.397Z,100062.80
2018-04-13T04:13:15.520Z,100064.63
2018-04-13T04:14:18.581Z,100068.27
2018-04-13T04:15:21.675Z,100068.77
2018-04-13T04:16:24.758Z,100069.19
2018-04-13T04:17:27.875Z,100072.86
2018-04-13T04:18:31.255Z,100076.36
2018-04-13T04:19:45.935Z,100072.93
2018-04-13T04:21:00.762Z,100074.58
2018-04-13T04:22:15.618Z,100066.83
2018-04-13T04:23:30.515Z,100071.52
2018-04-13T04:24:45.626Z,100070.86
2018-04-13T04:26:00.352Z,100073.66
2018-04-13T04:27:03.406Z,100076.00
2018-04-13T04:28:06.450Z,100072.75
2018-04-13T04:29:09.563Z,100079.75
2018-04-13T04:30:12.638Z,100075.20
2018-04-13T04:31:15.996Z,100080.95
2018-04-13T04:32:19.083Z,100081.27
2018-04-13T04:33:22.133Z,100077.27
2018-04-13T04:34:25.287Z,100080.77
2018-04-13T04:35:28.346Z,100084.27
2018-04-13T04:36:31.456Z,100089.78
2018-04-13T04:37:34.610Z,100087.72
2018-04-13T04:38:37.681Z,100086.49
2018-04-13T04:39:40.722Z,100095.50
2018-04-13T04:40:43.770Z,100096.45
2018-04-13T04:41:46.846Z,100097.89
2018-04-13T04:42:49.944Z,100100.23
2018-04-13T04:43:53.068Z,100096.84
2018-04-13T04:44:56.223Z,100098.80
2018-04-13T04:45:59.258Z,100100.66
2018-04-13T04:47:02.350Z,100107.50
2018-04-13T04:48:05.444Z,100105.15
2018-04-13T04:49:08.487Z,100111.11
2018-04-13T04:50:11.526Z,100117.11
2018-04-13T04:51:14.810Z,100117.34
2018-04-13T04:52:17.923Z,100117.56
2018-04-13T04:53:21.041Z,100117.38
2018-04-13T04:54:24.588Z,100122.99
2018-04-13T04:55:27.722Z,100129.90
2018-04-13T04:56:30.869Z,100126.74
2018-04-13T04:57:34.221Z,100129.76
2018-04-13T04:58:37.435Z,100134.59
2018-04-13T04:59:40.580Z,100139.33
2018-04-13T05:00:43.666Z,100138.28
2018-04-13T05:01:46.767Z,100141.75
2018-04-13T05:02:49.850Z,100144.77
2018-04-13T05:03:52.902Z,100140.28
2018-04-13T05:04:56.012Z,100144.13
2018-04-13T05:05:59.063Z,100146.20
2018-04-13T05:07:02.107Z,100145.64
2018-04-13T05:08:05.220Z,100138.98
2018-04-13T05:09:08.262Z,100148.55
2018-04-13T05:10:11.407Z,100146.66
2018-04-13T05:11:14.492Z,100147.00
2018-04-13T05:12:17.576Z,100148.73
2018-04-13T05:13:20.704Z,100149.98
2018-04-13T05:14:23.953Z,100150.41
2018-04-13T05:15:27.049Z,100145.43
2018-04-13T05:16:30.159Z,100148.09
2018-04-13T05:17:33.234Z,100147.60
2018-04-13T05:18:36.361Z,100151.00
2018-04-13T05:19:39.498Z,100152.76
2018-04-13T05:20:42.632Z,100151.77
2018-04-13T05:21:45.703Z,100155.21
2018-04-13T05:22:48.749Z,100153.36
2018-04-13T05:23:51.862Z,100157.21
2018-04-13T05:24:55.489Z,100152.72
2018-04-13T05:25:58.586Z,100159.31
2018-04-13T05:27:01.645Z,100157.91
2018-04-13T05:28:04.706Z,100160.43
2018-04-13T05:29:07.857Z,100158.50
2018-04-13T05:30:11.026Z,100164.19
2018-04-13T05:31:14.434Z,100162.78
2018-04-13T05:32:17.732Z,100164.95
2018-04-13T05:33:21.287Z,100170.95
2018-04-13T05:34:24.470Z,100174.95
2018-04-13T05:35:27.562Z,100168.14
2018-04-13T05:36:30.647Z,100174.63
2018-04-13T05:37:33.675Z,100174.98
2018-04-13T05:38:37.022Z,100174.00
2018-04-13T05:39:40.178Z,100175.75
2018-04-13T05:40:43.279Z,100171.66
2018-04-13T05:41:46.431Z,100167.58
2018-04-13T05:42:49.626Z,100178.59
2018-04-13T05:43:52.736Z,100175.33
2018-04-13T05:44:55.809Z,100182.34
2018-04-13T05:45:58.954Z,100182.77
2018-04-13T05:47:02.000Z,100180.45
2018-04-13T05:48:05.328Z,100187.95
2018-04-13T05:49:08.399Z,100193.29
2018-04-13T05:50:11.494Z,100192.77
2018-04-13T05:51:14.939Z,100189.19
2018-04-13T05:52:18.119Z,100195.29
2018-04-13T05:53:21.294Z,100196.20
2018-04-13T05:54:24.363Z,100198.38
2018-04-13T05:55:27.539Z,100199.64
2018-04-13T05:56:30.612Z,100200.55
2018-04-13T05:57:33.685Z,100204.45
2018-04-13T05:58:36.817Z,100201.29
2018-04-13T05:59:39.861Z,100201.98
2018-04-13T06:00:43.451Z,100210.41
2018-04-13T06:01:46.789Z,100210.41
2018-04-13T06:02:49.943Z,100219.39
2018-04-13T06:03:53.026Z,100220.80
2018-04-13T06:04:56.090Z,100224.97
2018-04-13T06:05:59.219Z,100229.29
2018-04-13T06:07:02.324Z,100232.66
2018-04-13T06:08:05.387Z,100233.75
2018-04-13T06:09:08.508Z,100235.08
2018-04-13T06:10:11.631Z,100233.89
2018-04-13T06:11:14.854Z,100240.55
2018-04-13T06:12:17.900Z,100233.99
2018-04-13T06:13:20.981Z,100241.57
2018-04-13T06:14:23.998Z,100236.55
2018-04-13T06:15:27.129Z,100240.48
2018-04-13T06:16:30.245Z,100238.23
2018-04-13T06:17:33.338Z,100237.75
2018-04-13T06:18:36.458Z,100235.85
2018-04-13T06:19:39.555Z,100237.08
2018-04-13T06:20:42.691Z,100235.26
2018-04-13T06:21:45.863Z,100230.77
2018-04-13T06:22:48.908Z,100228.52
2018-04-13T06:23:51.992Z,100228.94
2018-04-13T06:24:55.039Z,100226.69
2018-04-13T06:25:58.085Z,100232.77
2018-04-13T06:27:01.257Z,100231.85
2018-04-13T06:28:04.404Z,100223.36
2018-04-13T06:29:07.515Z,100229.89
2018-04-13T06:30:10.604Z,100229.22
2018-04-13T06:31:13.686Z,100226.83
2018-04-13T06:32:16.803Z,100226.09
2018-04-13T06:33:19.900Z,100228.52
2018-04-13T06:34:23.066Z,100229.60
2018-04-13T06:35:26.272Z,100228.05
2018-04-13T06:36:29.551Z,100230.47
2018-04-13T06:37:32.963Z,100230.72
2018-04-13T06:38:36.151Z,100229.59
2018-04-13T06:39:39.261Z,100237.77
2018-04-13T06:40:42.362Z,100235.34
2018-04-13T06:41:45.422Z,100243.63
2018-04-13T06:42:48.506Z,100244.85
2018-04-13T06:43:51.574Z,100243.38
2018-04-13T06:44:54.734Z,100246.29
2018-04-13T06:45:57.833Z,100241.72
2018-04-13T06:47:00.950Z,100244.66
2018-04-13T06:48:04.061Z,100253.41
2018-04-13T06:49:07.101Z,100247.83
2018-04-13T06:50:10.158Z,100246.70
2018-04-13T06:51:13.230Z,100250.03
2018-04-13T06:52:16.473Z,100258.20
2018-04-13T06:53:19.566Z,100255.47
2018-04-13T06:54:22.694Z,100255.74
2018-04-13T06:55:25.897Z,100253.31
2018-04-13T06:56:28.989Z,100259.84
2018-04-13T06:57:32.069Z,100254.33
2018-04-13T06:58:35.141Z,100258.19
2018-04-13T06:59:38.267Z,100261.09
2018-04-13T07:00:41.370Z,100255.20
2018-04-13T07:01:44.424Z,100261.62
2018-04-13T07:02:47.462Z,100266.39
2018-04-13T07:03:50.543Z,100266.14
2018-04-13T07:04:53.599Z,100264.63
2018-04-13T07:05:56.737Z,100263.57
2018-04-13T07:06:59.918Z,100268.34
2018-04-13T07:08:03.036Z,100273.92
2018-04-13T07:09:06.143Z,100270.69
2018-04-13T07:10:09.315Z,100277.61
2018-04-13T07:11:12.409Z,100277.45
2018-04-13T07:12:15.546Z,100274.19
2018-04-13T07:13:18.667Z,100279.39
2018-04-13T07:14:21.727Z,100274.36
2018-04-13T07:15:25.128Z,100276.46
2018-04-13T07:16:28.209Z,100276.31
2018-04-13T07:17:31.280Z,100276.56
2018-04-13T07:18:34.371Z,100278.98
2018-04-13T07:19:37.520Z,100276.93
2018-04-13T07:20:40.746Z,100283.84
2018-04-13T07:21:43.792Z,100285.53
2018-04-13T07:22:47.143Z,100285.77
2018-04-13T07:23:50.952Z,100280.63
2018-04-13T07:24:54.069Z,100282.66
2018-04-13T07:25:57.301Z,100276.64
2018-04-13T07:27:00.327Z,100276.81
2018-04-13T07:28:03.370Z,100269.91
2018-04-13T07:29:06.527Z,100270.58
2018-04-13T07:30:09.663Z,100266.42
2018-04-13T07:31:12.739Z,100265.75
2018-04-13T07:32:15.783Z,100265.91
2018-04-13T07:33:18.846Z,100268.67
2018-04-13T07:34:22.629Z,100274.19
2018-04-13T07:35:25.054Z,100278.46
2018-04-13T07:36:28.123Z,100272.94
2018-04-13T07:37:31.306Z,100276.38
2018-04-13T07:38:34.295Z,100278.38
2018-04-13T07:39:37.502Z,100281.81
2018-04-13T07:40:40.532Z,100278.57
2018-04-13T07:41:43.591Z,100281.55
2018-04-13T07:42:47.090Z,100280.64
2018-04-13T07:43:50.043Z,100289.34
2018-04-13T07:44:53.557Z,100285.23
2018-04-13T07:45:56.472Z,100291.42
2018-04-13T07:46:59.522Z,100289.59
2018-04-13T07:48:02.563Z,100291.59
2018-04-13T07:49:05.676Z,100289.75
2018-04-13T07:50:08.849Z,100290.09
2018-04-13T07:51:12.218Z,100290.45
2018-04-13T07:52:15.273Z,100290.27
2018-04-13T07:53:19.173Z,100294.13
2018-04-13T07:54:22.199Z,100291.45
2018-04-13T07:55:25.270Z,100289.44
2018-04-13T07:56:28.350Z,100286.61
2018-04-13T07:57:31.406Z,100289.11
2018-04-13T07:58:34.514Z,100285.86
2018-04-13T07:59:37.589Z,100295.95
2018-04-13T08:00:40.708Z,100289.46
2018-04-13T08:01:43.862Z,100286.69
2018-04-13T08:02:46.906Z,100285.61
2018-04-13T08:03:50.177Z,100290.70
2018-04-13T08:04:53.237Z,100288.72
2018-04-13T08:05:56.296Z,100292.97
2018-04-13T08:06:59.414Z,100291.48
2018-04-13T08:08:02.471Z,100293.89
2018-04-13T08:09:06.253Z,100291.87
2018-04-13T08:10:09.320Z,100293.56
2018-04-13T08:11:12.536Z,100295.66
2018-04-13T08:12:15.626Z,100293.65
2018-04-13T08:13:18.981Z,100298.16
2018-04-13T08:14:21.762Z,100296.07
2018-04-13T08:15:24.805Z,100296.66
2018-04-13T08:16:27.889Z,100300.25
2018-04-13T08:17:31.086Z,100295.91
2018-04-13T08:18:34.137Z,100295.48
2018-04-13T08:19:37.223Z,100292.90
2018-04-13T08:20:40.570Z,100297.48
2018-04-13T08:21:43.611Z,100292.64
2018-04-13T08:22:46.792Z,100294.55
2018-04-13T08:23:49.936Z,100295.28
2018-04-13T08:24:53.101Z,100292.34
2018-04-13T08:25:56.199Z,100292.99
2018-04-13T08:26:59.290Z,100296.51
2018-04-13T08:28:02.410Z,100297.69
2018-04-13T08:29:05.696Z,100296.66
2018-04-13T08:30:09.267Z,100298.77
2018-04-13T08:31:12.316Z,100296.44
2018-04-13T08:32:15.453Z,100309.62
2018-04-13T08:33:18.519Z,100308.71
2018-04-13T08:34:21.667Z,100314.06
2018-04-13T08:35:24.729Z,100311.73
2018-04-13T08:36:27.825Z,100311.73
2018-04-13T08:37:31.003Z,100315.25
2018-04-13T08:38:34.354Z,100311.23
2018-04-13T08:39:37.566Z,100315.55
2018-04-13T08:40:40.730Z,100313.72
2018-04-13T08:41:43.944Z,100308.30
2018-04-13T08:42:46.978Z,100315.75
2018-04-13T08:43:50.102Z,100313.46
2018-04-13T08:44:53.176Z,100311.20
2018-04-13T08:45:56.244Z,100312.96
2018-04-13T08:46:59.527Z,100312.39
2018-04-13T08:48:02.915Z,100315.41
2018-04-13T08:49:06.157Z,100314.48
2018-04-13T08:50:09.119Z,100313.46
2018-04-13T08:51:12.221Z,100311.63
2018-04-13T08:52:15.306Z,100315.56
2018-04-13T08:53:18.574Z,100322.59
2018-04-13T08:54:21.756Z,100326.08
2018-04-13T08:55:24.841Z,100319.23
2018-04-13T08:56:27.932Z,100323.48
2018-04-13T08:57:30.992Z,100331.36
2018-04-13T08:58:34.035Z,100332.52
2018-04-13T08:59:37.165Z,100332.36
2018-04-13T09:00:40.248Z,100328.50
2018-04-13T09:01:43.413Z,100333.28
2018-04-13T09:02:46.567Z,100336.19
2018-04-13T09:03:49.627Z,100335.95
2018-04-13T09:04:52.867Z,100326.40
2018-04-13T09:05:55.941Z,100333.17
2018-04-13T09:06:59.032Z,100337.45
2018-04-13T09:08:02.121Z,100342.46
2018-04-13T09:09:05.244Z,100339.59
2018-04-13T09:10:08.592Z,100341.51
2018-04-13T09:11:11.702Z,100345.95
2018-04-13T09:12:14.840Z,100345.67
2018-04-13T09:13:17.882Z,100347.02
2018-04-13T09:14:20.928Z,100350.61
2018-04-13T09:15:24.051Z,100351.45
2018-04-13T09:16:27.139Z,100351.75
2018-04-13T09:17:30.201Z,100349.91
2018-04-13T09:18:33.482Z,100352.13
2018-04-13T09:19:36.656Z,100352.55
2018-04-13T09:20:39.751Z,100349.52
2018-04-13T09:21:42.873Z,100352.61
2018-04-13T09:22:45.907Z,100356.65
2018-04-13T09:23:48.942Z,100362.58
2018-04-13T09:24:52.007Z,100364.72
2018-04-13T09:25:55.146Z,100363.88
2018-04-13T09:26:58.401Z,100362.59
2018-04-13T09:28:01.724Z,100371.12
2018-04-13T09:29:04.578Z,100374.38
2018-04-13T09:30:08.076Z,100375.91
2018-04-13T09:31:11.155Z,100369.34
2018-04-13T09:32:14.305Z,100364.89
2018-04-13T09:33:17.372Z,100361.09
2018-04-13T09:34:20.454Z,100362.20
2018-04-13T09:35:23.521Z,100358.33
2018-04-13T09:36:26.610Z,100352.53
2018-04-13T09:37:29.689Z,100347.65
2018-04-13T09:38:32.739Z,100355.64
2018-04-13T09:39:35.783Z,100353.86
2018-04-13T09:40:38.824Z,100354.94
2018-04-13T09:41:41.912Z,100355.69
2018-04-13T09:42:45.006Z,100357.79
2018-04-13T09:43:48.089Z,100364.80
2018-04-13T09:44:51.353Z,100367.98
2018-04-13T09:45:55.013Z,100371.93
2018-04-13T09:46:58.155Z,100371.93
2018-04-13T09:48:01.305Z,100373.11
2018-04-13T09:49:04.351Z,100368.58
2018-04-13T09:50:07.655Z,100375.94
2018-04-13T09:51:10.750Z,100375.23
2018-04-13T09:52:13.848Z,100375.50
2018-04-13T09:53:16.947Z,100378.41
2018-04-13T09:55:29.796Z,100378.24
2018-04-13T09:56:33.000Z,100374.56
2018-04-13T09:57:36.084Z,100374.86
2018-04-13T09:58:39.141Z,100370.92
2018-04-13T09:59:42.181Z,100369.50
2018-04-13T10:00:45.363Z,100375.78
2018-04-13T10:01:48.415Z,100365.17
2018-04-13T10:02:57.048Z,100371.88
2018-04-13T10:04:14.999Z,100376.56
2018-04-13T10:05:18.071Z,100372.14
2018-04-13T10:06:21.139Z,100375.86
2018-04-13T10:07:24.234Z,100376.86
2018-04-13T10:08:27.290Z,100376.52
2018-04-13T10:09:30.396Z,100368.66
2018-04-13T10:10:33.502Z,100373.27
2018-04-13T10:11:36.568Z,100373.97
2018-04-13T10:12:40.088Z,100374.55
2018-04-13T10:13:43.237Z,100381.45
2018-04-13T10:14:46.291Z,100378.62
2018-04-13T10:15:49.345Z,100377.86
2018-04-13T10:16:52.606Z,100379.05
2018-04-13T10:17:55.876Z,100381.06
2018-04-13T10:18:58.930Z,100378.14
2018-04-13T10:20:02.024Z,100384.85
2018-04-13T10:21:05.193Z,100386.77
2018-04-13T10:22:08.332Z,100386.55
2018-04-13T10:23:11.724Z,100388.55
2018-04-13T10:24:14.918Z,100386.14
2018-04-13T10:25:18.024Z,100390.43
2018-04-13T10:26:21.290Z,100394.30
2018-04-13T10:27:24.418Z,100391.78
2018-04-13T10:28:27.577Z,100387.11
2018-04-13T10:29:30.777Z,100392.05
2018-04-13T10:30:33.870Z,100385.02
2018-04-13T10:31:36.985Z,100391.22
2018-04-13T10:32:40.137Z,100392.90
2018-04-13T10:33:43.370Z,100394.62
2018-04-13T10:34:46.552Z,100395.39
2018-04-13T10:35:49.675Z,100402.73
2018-04-13T10:36:52.751Z,100399.06
2018-04-13T10:37:55.915Z,100395.30
2018-04-13T10:38:58.958Z,100401.81
2018-04-13T10:40:02.102Z,100402.14
2018-04-13T10:41:05.199Z,100404.64
2018-04-13T10:42:08.265Z,100407.50
2018-04-13T10:43:11.392Z,100408.14
2018-04-13T10:44:14.479Z,100413.34
2018-04-13T10:45:17.730Z,100415.84
2018-04-13T10:46:20.897Z,100409.48
2018-04-13T10:47:23.951Z,100417.83
2018-04-13T10:48:26.978Z,100413.22
2018-04-13T10:49:30.048Z,100411.80
2018-04-13T10:50:33.396Z,100412.64
2018-04-13T10:51:36.474Z,100416.05
2018-04-13T10:52:39.610Z,100413.37
2018-04-13T10:53:42.689Z,100416.81
2018-04-13T10:54:47.250Z,100413.63
2018-04-13T10:55:50.396Z,100422.59
2018-04-13T10:56:53.494Z,100422.94
2018-04-13T10:57:56.518Z,100417.16
2018-04-13T10:58:59.674Z,100422.83
2018-04-13T11:00:02.728Z,100426.85
2018-04-13T11:01:05.843Z,100428.61
2018-04-13T11:02:08.930Z,100430.80
2018-04-13T11:03:11.983Z,100429.95
2018-04-13T11:04:15.229Z,100435.23
2018-04-13T11:05:18.343Z,100434.73
2018-04-13T11:06:21.412Z,100433.90
2018-04-13T11:07:24.480Z,100442.28
2018-04-13T11:08:27.578Z,100437.73
2018-04-13T11:09:30.668Z,100445.70
2018-04-13T11:10:33.716Z,100444.27
2018-04-13T11:11:36.805Z,100445.11
2018-04-13T11:12:39.845Z,100452.55
2018-04-13T11:13:42.958Z,100449.98
2018-04-13T11:14:46.220Z,100455.07
2018-04-13T11:15:49.413Z,100459.44
2018-04-13T11:16:52.523Z,100457.06
2018-04-13T11:17:55.768Z,100455.06
2018-04-13T11:18:58.886Z,100461.99
2018-04-13T11:20:01.954Z,100455.55
2018-04-13T11:21:05.033Z,100463.24
2018-04-13T11:22:08.138Z,100452.23
2018-04-13T11:23:11.239Z,100460.44
2018-04-13T11:24:14.309Z,100452.72
2018-04-13T11:25:17.395Z,100453.71
2018-04-13T11:26:20.529Z,100459.72
2018-04-13T11:27:23.821Z,100459.64
2018-04-13T11:28:26.885Z,100453.27
2018-04-13T11:29:29.977Z,100454.95
2018-04-13T11:30:33.079Z,100453.92
2018-04-13T11:31:36.180Z,100452.91
2018-04-13T11:32:39.312Z,100451.66
2018-04-13T11:33:42.427Z,100446.63
2018-04-13T11:34:45.570Z,100451.08
2018-04-13T11:35:48.639Z,100443.02
2018-04-13T11:36:51.769Z,100447.47
2018-04-13T11:37:54.842Z,100441.68
2018-04-13T11:38:57.908Z,100444.78
2018-04-13T11:40:00.982Z,100449.23
2018-04-13T11:41:04.006Z,100450.58
2018-04-13T11:42:07.074Z,100456.78
2018-04-13T11:43:10.119Z,100450.99
2018-04-13T11:44:13.198Z,100452.64
2018-04-13T11:45:16.303Z,100459.77
2018-04-13T11:46:19.362Z,100457.51
2018-04-13T11:47:22.506Z,100461.95
2018-04-13T11:48:25.594Z,100462.80
2018-04-13T11:49:28.663Z,100461.38
2018-04-13T11:50:31.719Z,100458.50
2018-04-13T11:51:34.984Z,100462.70
2018-04-13T11:52:38.042Z,100457.59
2018-04-13T11:53:41.125Z,100464.86
2018-04-13T11:54:44.198Z,100458.13
2018-04-13T11:55:47.474Z,100456.85
2018-04-13T11:56:50.663Z,100460.02
2018-04-13T11:57:53.703Z,100456.36
2018-04-13T11:58:56.774Z,100453.56
2018-04-13T11:59:59.848Z,100459.84
2018-04-13T12:01:02.956Z,100455.38
2018-04-13T12:02:06.087Z,100460.69
2018-04-13T12:03:09.137Z,100461.08
2018-04-13T12:04:12.218Z,100464.24
2018-04-13T12:05:15.313Z,100466.06
2018-04-13T12:06:18.395Z,100463.86